Terminal Aerodrome Forecast
Issued by NWS Shreveport, LA

Home | Current Version | Previous Version | Text Only | Print | Product List | Glossary On
Versions: 1 2 3 4 5 6 7 8 9 10 11 12 13 14 15
000
FTUS44 KSHV 240500 RRA
TAFMLU
TAF
KMLU 240547Z 2406/2506 21011KT P6SM FEW120
     FM240900 27013G18KT P6SM BKN025 BKN120
     FM241500 32014KT P6SM SCT030 SCT250
     FM241800 32011KT P6SM FEW250
     FM242300 30005KT P6SM FEW150
     FM250000 VRB03KT P6SM SKC=

USA.gov is the U.S. government's official web portal to all federal, state and local government web resources and services.